createdAt,value
2018-12-30T00:01:54.884Z,2.75
2018-12-30T00:04:21.652Z,3.37
2018-12-30T00:06:48.656Z,3.02
2018-12-30T00:09:15.100Z,2.47
2018-12-30T00:11:41.839Z,2.15
2018-12-30T00:14:08.292Z,3.10
2018-12-30T00:16:34.958Z,2.62
2018-12-30T00:19:02.194Z,2.40
2018-12-30T00:21:28.653Z,3.52
2018-12-30T00:23:55.128Z,2.75
2018-12-30T00:26:21.575Z,2.95
2018-12-30T00:28:48.005Z,3.02
2018-12-30T00:31:14.780Z,3.40
2018-12-30T00:33:41.215Z,2.58
2018-12-30T00:36:07.674Z,3.80
2018-12-30T00:38:34.148Z,2.90
2018-12-30T00:41:00.684Z,2.77
2018-12-30T00:43:27.152Z,4.53
2018-12-30T00:45:53.619Z,3.50
2018-12-30T00:48:20.282Z,3.50
2018-12-30T00:50:46.752Z,2.95
2018-12-30T00:53:13.223Z,3.15
2018-12-30T00:55:39.768Z,2.45
2018-12-30T00:58:06.232Z,3.42
2018-12-30T01:00:32.788Z,3.90
2018-12-30T01:02:59.361Z,3.40
2018-12-30T01:05:25.786Z,3.35
2018-12-30T01:07:52.262Z,3.80
2018-12-30T01:10:18.798Z,2.55
2018-12-30T01:12:45.235Z,4.03
2018-12-30T01:15:11.908Z,2.47
2018-12-30T01:17:38.607Z,3.17
2018-12-30T01:20:05.288Z,3.47
2018-12-30T01:22:31.720Z,2.50
2018-12-30T01:24:58.192Z,3.00
2018-12-30T01:27:24.999Z,3.22
2018-12-30T01:29:51.467Z,3.72
2018-12-30T01:32:18.212Z,2.80
2018-12-30T01:34:44.683Z,2.50
2018-12-30T01:37:11.420Z,3.25
2018-12-30T01:39:37.959Z,3.20
2018-12-30T01:42:04.426Z,3.17
2018-12-30T01:44:31.842Z,3.17
2018-12-30T01:46:58.560Z,3.37
2018-12-30T01:49:25.120Z,4.03
2018-12-30T01:51:51.868Z,3.33
2018-12-30T01:54:18.431Z,2.87
2018-12-30T01:56:44.905Z,4.08
2018-12-30T01:59:11.355Z,3.15
2018-12-30T02:01:38.124Z,4.83
2018-12-30T02:04:04.576Z,3.70
2018-12-30T02:06:31.039Z,3.25
2018-12-30T02:08:57.970Z,3.22
2018-12-30T02:11:24.410Z,3.17
2018-12-30T02:13:50.861Z,3.22
2018-12-30T02:16:17.335Z,4.53
2018-12-30T02:18:43.996Z,2.65
2018-12-30T02:21:10.639Z,3.67
2018-12-30T02:23:37.204Z,3.47
2018-12-30T02:26:03.644Z,3.05
2018-12-30T02:28:30.212Z,3.95
2018-12-30T02:30:56.694Z,2.77
2018-12-30T02:33:23.258Z,2.77
2018-12-30T02:35:49.795Z,3.35
2018-12-30T02:38:16.999Z,2.98
2018-12-30T02:40:43.724Z,4.30
2018-12-30T02:43:10.281Z,3.35
2018-12-30T02:45:36.984Z,3.85
2018-12-30T02:48:03.623Z,4.08
2018-12-30T02:50:30.092Z,3.02
2018-12-30T02:52:56.861Z,2.67
2018-12-30T02:55:23.351Z,2.98
2018-12-30T02:57:49.803Z,3.33
2018-12-30T03:00:16.339Z,3.17
2018-12-30T03:02:42.811Z,2.92
2018-12-30T03:05:09.263Z,2.62
2018-12-30T03:07:36.190Z,3.65
2018-12-30T03:10:03.328Z,2.85
2018-12-30T03:12:29.811Z,2.95
2018-12-30T03:14:56.247Z,3.08
2018-12-30T03:17:22.717Z,2.95
2018-12-30T03:19:49.156Z,3.87
2018-12-30T03:22:15.631Z,3.87
2018-12-30T03:24:42.063Z,5.78
2018-12-30T03:27:08.429Z,3.17
2018-12-30T03:29:35.133Z,2.90
2018-12-30T03:32:01.594Z,3.83
2018-12-30T03:34:28.430Z,2.55
2018-12-30T03:36:54.854Z,3.15
2018-12-30T03:39:21.243Z,3.27
2018-12-30T03:41:47.637Z,2.92
2018-12-30T03:44:14.194Z,2.50
2018-12-30T03:46:40.573Z,2.92
2018-12-30T03:49:07.141Z,2.50
2018-12-30T03:51:33.782Z,2.42
2018-12-30T03:54:00.282Z,4.55
2018-12-30T03:56:27.055Z,2.55
2018-12-30T03:58:53.625Z,3.00
2018-12-30T04:01:20.184Z,3.22
2018-12-30T04:03:46.631Z,2.33
2018-12-30T04:06:13.096Z,3.30
2018-12-30T04:08:39.773Z,3.15
2018-12-30T04:11:06.250Z,2.85
2018-12-30T04:13:32.745Z,2.40
2018-12-30T04:15:59.311Z,3.00
2018-12-30T04:18:25.847Z,2.30
2018-12-30T04:20:52.307Z,3.10
2018-12-30T04:23:18.747Z,2.87
2018-12-30T04:25:45.119Z,2.70
2018-12-30T04:28:11.463Z,2.95
2018-12-30T04:30:37.831Z,4.50
2018-12-30T04:33:04.301Z,3.75
2018-12-30T04:35:30.792Z,5.83
2018-12-30T04:37:57.225Z,2.17
2018-12-30T04:40:23.666Z,2.87
2018-12-30T04:42:50.128Z,2.50
2018-12-30T04:45:16.570Z,3.10
2018-12-30T04:47:43.282Z,2.87
2018-12-30T04:50:09.744Z,5.85
2018-12-30T04:52:36.216Z,3.17
2018-12-30T04:55:02.859Z,2.87
2018-12-30T04:57:29.314Z,3.10
2018-12-30T04:59:56.026Z,2.77
2018-12-30T05:02:22.511Z,4.25
2018-12-30T05:04:48.967Z,3.30
2018-12-30T05:07:15.440Z,2.58
2018-12-30T05:09:41.874Z,3.15
2018-12-30T05:12:08.264Z,2.80
2018-12-30T05:14:34.640Z,3.00
2018-12-30T05:17:01.080Z,3.20
2018-12-30T05:19:27.466Z,3.40
2018-12-30T05:21:53.901Z,4.72
2018-12-30T05:24:20.358Z,3.70
2018-12-30T05:26:46.701Z,2.33
2018-12-30T05:29:13.163Z,3.33
2018-12-30T05:31:39.509Z,3.00
2018-12-30T05:34:06.007Z,3.12
2018-12-30T05:36:32.443Z,3.25
2018-12-30T05:38:58.906Z,3.42
2018-12-30T05:41:25.347Z,2.67
2018-12-30T05:43:51.715Z,4.28
2018-12-30T05:46:18.155Z,2.45
2018-12-30T05:48:44.580Z,3.50
2018-12-30T05:51:11.019Z,4.62
2018-12-30T05:53:37.751Z,2.75
2018-12-30T05:56:04.186Z,2.98
2018-12-30T05:58:30.535Z,2.30
2018-12-30T06:00:56.939Z,2.42
2018-12-30T06:03:23.385Z,2.75
2018-12-30T06:05:49.867Z,3.12
2018-12-30T06:08:16.420Z,2.92
2018-12-30T06:10:43.157Z,3.62
2018-12-30T06:13:09.757Z,3.05
2018-12-30T06:15:36.267Z,2.80
2018-12-30T06:18:03.012Z,3.80
2018-12-30T06:20:29.366Z,3.60
2018-12-30T06:22:55.813Z,3.75
2018-12-30T06:25:22.277Z,3.10
2018-12-30T06:27:48.737Z,3.37
2018-12-30T06:30:15.217Z,2.30
2018-12-30T06:32:41.802Z,3.17
2018-12-30T06:35:08.699Z,2.30
2018-12-30T06:37:35.080Z,2.80
2018-12-30T06:40:01.921Z,3.25
2018-12-30T06:42:28.374Z,2.87
2018-12-30T06:44:54.975Z,2.35
2018-12-30T06:47:21.606Z,2.90
2018-12-30T06:49:47.943Z,2.95
2018-12-30T06:52:14.315Z,3.02
2018-12-30T06:54:40.663Z,2.83
2018-12-30T06:57:07.129Z,2.90
2018-12-30T06:59:33.577Z,3.65
2018-12-30T07:02:00.034Z,4.15
2018-12-30T07:04:26.475Z,2.90
2018-12-30T07:06:52.852Z,2.15
2018-12-30T07:09:19.208Z,3.20
2018-12-30T07:11:45.651Z,3.25
2018-12-30T07:14:12.109Z,3.08
2018-12-30T07:16:38.563Z,3.12
2018-12-30T07:19:05.027Z,3.65
2018-12-30T07:21:31.476Z,3.00
2018-12-30T07:23:57.835Z,3.62
2018-12-30T07:26:24.188Z,3.00
2018-12-30T07:28:50.642Z,3.12
2018-12-30T07:31:17.040Z,3.08
2018-12-30T07:33:43.514Z,2.12
2018-12-30T07:36:09.875Z,3.05
2018-12-30T07:38:36.339Z,3.33
2018-12-30T07:41:02.800Z,2.77
2018-12-30T07:43:29.251Z,2.30
2018-12-30T07:45:55.605Z,3.00
2018-12-30T07:48:21.975Z,2.75
2018-12-30T07:50:48.355Z,2.25
2018-12-30T07:53:14.795Z,2.72
2018-12-30T07:55:41.272Z,2.10
2018-12-30T07:58:07.708Z,2.80
2018-12-30T08:00:34.091Z,2.15
2018-12-30T08:03:00.626Z,2.67
2018-12-30T08:05:27.016Z,2.62
2018-12-30T08:07:53.480Z,3.75
2018-12-30T08:10:19.948Z,2.50
2018-12-30T08:12:46.483Z,2.47
2018-12-30T08:15:13.065Z,3.62
2018-12-30T08:17:39.500Z,3.45
2018-12-30T08:20:06.377Z,2.40
2018-12-30T08:22:32.902Z,2.10
2018-12-30T08:24:59.548Z,2.50
2018-12-30T08:27:26.008Z,3.22
2018-12-30T08:29:52.476Z,2.83
2018-12-30T08:32:18.926Z,2.70
2018-12-30T08:34:45.412Z,3.52
2018-12-30T08:37:11.873Z,3.55
2018-12-30T08:39:39.923Z,2.83
2018-12-30T08:42:06.501Z,3.42
2018-12-30T08:44:32.838Z,2.60
2018-12-30T08:46:59.255Z,4.28
2018-12-30T08:49:25.947Z,2.45
2018-12-30T08:51:52.398Z,2.80
2018-12-30T08:54:18.852Z,2.45
2018-12-30T08:56:45.307Z,2.70
2018-12-30T08:59:11.647Z,2.72
2018-12-30T09:01:38.121Z,2.80
2018-12-30T09:04:04.680Z,2.00
2018-12-30T09:06:31.429Z,3.10
2018-12-30T09:08:57.864Z,2.52
2018-12-30T09:11:24.408Z,2.62
2018-12-30T09:13:52.309Z,2.80
2018-12-30T09:16:18.843Z,2.20
2018-12-30T09:18:45.222Z,2.47
2018-12-30T09:21:11.676Z,2.67
2018-12-30T09:23:38.135Z,2.62
2018-12-30T09:26:04.483Z,2.60
2018-12-30T09:28:30.943Z,3.15
2018-12-30T09:30:57.305Z,2.80
2018-12-30T09:33:23.792Z,2.12
2018-12-30T09:35:50.248Z,2.50
2018-12-30T09:38:16.994Z,3.37
2018-12-30T09:40:43.535Z,2.50
2018-12-30T09:43:10.013Z,2.60
2018-12-30T09:45:36.485Z,2.30
2018-12-30T09:48:03.019Z,2.72
2018-12-30T09:50:29.464Z,2.90
2018-12-30T09:52:55.824Z,3.22
2018-12-30T09:55:22.288Z,5.30
2018-12-30T09:57:48.932Z,2.92
2018-12-30T10:00:15.503Z,2.60
2018-12-30T10:02:42.224Z,4.03
2018-12-30T10:05:08.609Z,3.00
2018-12-30T10:07:35.053Z,2.85
2018-12-30T10:10:01.832Z,2.87
2018-12-30T10:12:28.536Z,2.40
2018-12-30T10:14:54.999Z,3.35
2018-12-30T10:17:21.694Z,3.30
2018-12-30T10:19:48.060Z,3.70
2018-12-30T10:22:14.501Z,3.50
2018-12-30T10:24:41.318Z,3.77
2018-12-30T10:27:07.663Z,2.00
2018-12-30T10:29:34.312Z,2.60
2018-12-30T10:32:01.039Z,3.00
2018-12-30T10:34:27.407Z,3.30
2018-12-30T10:36:54.192Z,3.70
2018-12-30T10:39:20.547Z,3.35
2018-12-30T10:41:47.171Z,7.30
2018-12-30T10:44:13.724Z,3.55
2018-12-30T10:46:40.183Z,4.00
2018-12-30T10:49:06.539Z,3.47
2018-12-30T10:51:33.111Z,3.90
2018-12-30T10:54:00.753Z,4.10
2018-12-30T10:56:27.322Z,4.50
2018-12-30T10:58:54.036Z,4.70
2018-12-30T11:01:20.879Z,4.97
2018-12-30T11:03:47.327Z,4.87
2018-12-30T11:06:13.800Z,5.00
2018-12-30T11:08:40.236Z,5.20
2018-12-30T11:11:06.728Z,4.00
2018-12-30T11:13:33.156Z,4.90
2018-12-30T11:15:59.723Z,4.40
2018-12-30T11:18:26.279Z,4.45
2018-12-30T11:20:52.883Z,6.00
2018-12-30T11:23:19.421Z,4.85
2018-12-30T11:25:45.863Z,4.95
2018-12-30T11:28:12.345Z,4.33
2018-12-30T11:30:38.982Z,3.85
2018-12-30T11:33:05.377Z,4.42
2018-12-30T11:35:31.827Z,4.62
2018-12-30T11:37:58.291Z,4.50
2018-12-30T11:40:24.751Z,3.60
2018-12-30T11:42:51.206Z,6.22
2018-12-30T11:45:17.551Z,5.83
2018-12-30T11:47:44.172Z,5.15
2018-12-30T11:50:10.516Z,5.17
2018-12-30T11:52:38.147Z,4.12
2018-12-30T11:55:05.060Z,3.77
2018-12-30T11:57:31.530Z,4.25
2018-12-30T11:59:58.239Z,5.05
2018-12-30T12:02:24.607Z,3.72
2018-12-30T12:04:51.050Z,5.17
2018-12-30T12:07:17.496Z,5.97
2018-12-30T12:09:44.051Z,4.58
2018-12-30T12:12:10.502Z,4.10
2018-12-30T12:14:36.877Z,3.77
2018-12-30T12:17:03.427Z,4.65
2018-12-30T12:19:29.899Z,4.58
2018-12-30T12:21:56.463Z,4.15
2018-12-30T12:24:24.524Z,4.20
2018-12-30T12:26:51.264Z,4.92
2018-12-30T12:29:17.644Z,4.87
2018-12-30T12:31:44.100Z,4.67
2018-12-30T12:34:10.596Z,6.67
2018-12-30T12:36:37.061Z,4.55
2018-12-30T12:39:04.927Z,5.05
2018-12-30T12:41:31.280Z,6.20
2018-12-30T12:43:57.759Z,4.90
2018-12-30T12:46:24.193Z,5.35
2018-12-30T12:48:50.900Z,5.00
2018-12-30T12:51:17.274Z,5.30
2018-12-30T12:53:43.971Z,4.40
2018-12-30T12:56:10.448Z,5.30
2018-12-30T12:58:36.892Z,5.15
2018-12-30T13:01:03.715Z,5.05
2018-12-30T13:03:30.072Z,4.75
2018-12-30T13:05:56.791Z,5.20
2018-12-30T13:08:23.512Z,5.55
2018-12-30T13:10:50.246Z,6.12
2018-12-30T13:13:17.085Z,5.47
2018-12-30T13:15:43.666Z,5.10
2018-12-30T13:18:10.119Z,4.85
2018-12-30T13:20:36.692Z,4.92
2018-12-30T13:23:03.151Z,5.03
2018-12-30T13:25:29.735Z,5.55
2018-12-30T13:27:56.357Z,5.30
2018-12-30T13:30:23.166Z,5.72
2018-12-30T13:32:49.571Z,5.72
2018-12-30T13:35:16.108Z,5.37
2018-12-30T13:37:42.577Z,6.67
2018-12-30T13:40:09.187Z,6.85
2018-12-30T13:42:38.527Z,5.42
2018-12-30T13:45:05.545Z,5.92
2018-12-30T13:47:32.134Z,6.40
2018-12-30T13:49:58.596Z,5.47
2018-12-30T13:52:25.331Z,5.25
2018-12-30T13:54:51.854Z,4.65
2018-12-30T13:57:18.572Z,5.10
2018-12-30T13:59:45.115Z,5.92
2018-12-30T14:02:11.642Z,5.90
2018-12-30T14:04:38.485Z,5.75
2018-12-30T14:07:05.032Z,6.55
2018-12-30T14:09:31.439Z,7.47
2018-12-30T14:11:58.145Z,9.18
2018-12-30T14:14:24.613Z,5.60
2018-12-30T14:16:51.228Z,6.08
2018-12-30T14:19:17.876Z,7.22
2018-12-30T14:21:44.500Z,7.60
2018-12-30T14:24:10.963Z,8.45
2018-12-30T14:26:37.327Z,6.22
2018-12-30T14:29:03.805Z,5.75
2018-12-30T14:31:30.362Z,6.37
2018-12-30T14:33:56.876Z,6.37
2018-12-30T14:36:23.639Z,7.00
2018-12-30T14:38:50.100Z,8.13
2018-12-30T14:41:16.582Z,6.72
2018-12-30T14:43:43.015Z,5.83
2018-12-30T14:46:09.400Z,6.40
2018-12-30T14:48:35.839Z,6.60
2018-12-30T14:51:02.356Z,5.70
2018-12-30T14:53:28.884Z,6.20
2018-12-30T14:55:55.702Z,5.33
2018-12-30T14:58:22.054Z,5.70
2018-12-30T15:00:48.541Z,4.78
2018-12-30T15:03:15.101Z,5.37
2018-12-30T15:05:41.651Z,5.03
2018-12-30T15:08:08.104Z,5.90
2018-12-30T15:10:34.577Z,4.55
2018-12-30T15:13:01.407Z,5.80
2018-12-30T15:15:27.896Z,6.53
2018-12-30T15:17:54.448Z,5.30
2018-12-30T15:20:21.016Z,5.78
2018-12-30T15:22:47.454Z,6.67
2018-12-30T15:25:14.416Z,6.65
2018-12-30T15:27:40.871Z,5.85
2018-12-30T15:30:08.091Z,6.20
2018-12-30T15:32:34.915Z,4.95
2018-12-30T15:35:01.511Z,5.05
2018-12-30T15:37:28.224Z,6.30
2018-12-30T15:39:54.848Z,6.28
2018-12-30T15:42:21.324Z,7.03
2018-12-30T15:44:47.758Z,5.65
2018-12-30T15:47:14.451Z,5.35
2018-12-30T15:49:40.999Z,5.87
2018-12-30T15:52:07.468Z,6.75
2018-12-30T15:54:33.903Z,5.20
2018-12-30T15:57:00.470Z,4.97
2018-12-30T15:59:27.112Z,4.80
2018-12-30T16:01:53.572Z,6.33
2018-12-30T16:04:20.047Z,5.35
2018-12-30T16:06:46.500Z,6.47
2018-12-30T16:09:13.223Z,5.83
2018-12-30T16:11:39.579Z,7.65
2018-12-30T16:14:06.146Z,7.53
2018-12-30T16:16:32.704Z,6.28
2018-12-30T16:18:59.571Z,6.78
2018-12-30T16:21:26.109Z,8.20
2018-12-30T16:23:52.584Z,7.15
2018-12-30T16:26:19.384Z,8.03
2018-12-30T16:28:45.747Z,7.35
2018-12-30T16:31:12.199Z,7.00
2018-12-30T16:33:38.604Z,7.22
2018-12-30T16:36:05.257Z,7.47
2018-12-30T16:38:32.008Z,7.80
2018-12-30T16:40:58.485Z,7.80
2018-12-30T16:43:24.931Z,8.88
2018-12-30T16:45:51.442Z,8.25
2018-12-30T16:48:18.157Z,8.28
2018-12-30T16:50:44.629Z,7.87
2018-12-30T16:53:11.076Z,8.10
2018-12-30T16:55:37.451Z,8.30
2018-12-30T16:58:03.911Z,9.00
2018-12-30T17:00:30.635Z,8.53
2018-12-30T17:02:57.100Z,9.28
2018-12-30T17:05:23.577Z,10.00
2018-12-30T17:07:50.020Z,10.18
2018-12-30T17:10:19.312Z,11.80
2018-12-30T17:12:45.757Z,10.30
2018-12-30T17:15:12.223Z,11.08
2018-12-30T17:17:38.917Z,10.93
2018-12-30T17:20:05.487Z,11.05
2018-12-30T17:22:31.965Z,12.13
2018-12-30T17:24:58.435Z,12.33
2018-12-30T17:27:24.972Z,11.25
2018-12-30T17:29:51.320Z,11.88
2018-12-30T17:32:17.806Z,11.45
2018-12-30T17:34:44.274Z,13.10
2018-12-30T17:37:10.765Z,13.75
2018-12-30T17:39:37.591Z,12.20
2018-12-30T17:42:03.972Z,14.10
2018-12-30T17:44:30.423Z,14.35
2018-12-30T17:46:56.873Z,13.88
2018-12-30T17:49:23.352Z,13.13
2018-12-30T17:51:51.805Z,13.15
2018-12-30T17:54:18.546Z,14.85
2018-12-30T17:56:45.251Z,12.80
2018-12-30T17:59:11.899Z,13.75
2018-12-30T18:01:38.500Z,13.45
2018-12-30T18:04:04.876Z,12.90
2018-12-30T18:06:31.328Z,15.45
2018-12-30T18:08:57.896Z,14.60
2018-12-30T18:11:24.279Z,14.53
2018-12-30T18:13:50.853Z,14.90
2018-12-30T18:16:17.320Z,13.25
2018-12-30T18:18:43.799Z,12.73
2018-12-30T18:21:10.362Z,13.83
2018-12-30T18:23:36.932Z,15.93
2018-12-30T18:26:03.748Z,14.38
2018-12-30T18:28:30.134Z,13.62
2018-12-30T18:30:56.583Z,16.48
2018-12-30T18:33:22.971Z,16.35
2018-12-30T18:35:49.348Z,15.10
2018-12-30T18:38:15.783Z,15.10
2018-12-30T18:40:42.152Z,16.73
2018-12-30T18:43:08.605Z,15.93
2018-12-30T18:45:35.160Z,16.60
2018-12-30T18:48:01.512Z,15.75
2018-12-30T18:50:27.983Z,14.95
2018-12-30T18:52:54.449Z,15.63
2018-12-30T18:55:21.193Z,14.30
2018-12-30T18:57:47.635Z,14.63
2018-12-30T19:00:14.371Z,16.75
2018-12-30T19:02:40.717Z,15.90
2018-12-30T19:05:07.672Z,14.90
2018-12-30T19:07:34.240Z,17.25
2018-12-30T19:10:00.682Z,16.77
2018-12-30T19:12:27.152Z,17.87
2018-12-30T19:14:53.609Z,14.07
2018-12-30T19:17:20.129Z,13.93
2018-12-30T19:19:46.562Z,15.13
2018-12-30T19:22:13.398Z,16.25
2018-12-30T19:24:39.864Z,17.37
2018-12-30T19:27:06.443Z,15.05
2018-12-30T19:29:33.148Z,15.32
2018-12-30T19:31:59.536Z,16.77
2018-12-30T19:34:26.106Z,15.70
2018-12-30T19:36:52.683Z,16.95
2018-12-30T19:39:19.159Z,18.73
2018-12-30T19:41:45.913Z,16.45
2018-12-30T19:44:12.271Z,17.75
2018-12-30T19:46:39.077Z,17.60
2018-12-30T19:49:05.720Z,16.40
2018-12-30T19:51:32.164Z,18.02
2018-12-30T19:53:58.644Z,16.30
2018-12-30T19:56:25.492Z,18.20
2018-12-30T19:58:52.060Z,16.67
2018-12-30T20:01:18.519Z,17.87
2018-12-30T20:03:45.101Z,15.60
2018-12-30T20:06:11.653Z,17.10
2018-12-30T20:08:38.128Z,17.80
2018-12-30T20:11:04.592Z,21.50
2018-12-30T20:13:31.068Z,19.70
2018-12-30T20:15:57.535Z,20.95
2018-12-30T20:18:24.109Z,18.50
2018-12-30T20:20:50.868Z,18.62
2018-12-30T20:23:17.287Z,19.00
2018-12-30T20:25:43.756Z,18.87
2018-12-30T20:28:10.459Z,19.95
2018-12-30T20:30:37.220Z,19.10
2018-12-30T20:33:03.613Z,19.65
2018-12-30T20:35:30.083Z,19.75
2018-12-30T20:37:56.793Z,17.62
2018-12-30T20:40:23.360Z,18.40
2018-12-30T20:42:49.807Z,17.37
2018-12-30T20:45:16.463Z,16.73
2018-12-30T20:47:42.908Z,18.70
2018-12-30T20:50:09.390Z,20.55
2018-12-30T20:52:35.940Z,18.67
2018-12-30T20:55:03.045Z,19.55
2018-12-30T20:57:29.447Z,16.87
2018-12-30T20:59:55.899Z,18.87
2018-12-30T21:02:22.368Z,16.70
2018-12-30T21:04:48.826Z,19.30
2018-12-30T21:07:15.248Z,18.20
2018-12-30T21:09:41.715Z,16.25
2018-12-30T21:12:08.653Z,17.75
2018-12-30T21:14:35.098Z,17.30
2018-12-30T21:17:01.683Z,17.80
2018-12-30T21:19:28.340Z,16.55
2018-12-30T21:21:55.094Z,18.07
2018-12-30T21:24:21.654Z,17.37
2018-12-30T21:26:48.143Z,16.23
2018-12-30T21:29:14.608Z,13.80
2018-12-30T21:31:41.085Z,16.23
2018-12-30T21:34:07.961Z,16.45
2018-12-30T21:36:34.647Z,17.80
2018-12-30T21:39:01.358Z,18.07
2018-12-30T21:41:27.813Z,16.60
2018-12-30T21:43:54.395Z,15.88
2018-12-30T21:46:20.951Z,17.32
2018-12-30T21:48:47.815Z,16.77
2018-12-30T21:51:14.375Z,17.50
2018-12-30T21:53:40.851Z,16.57
2018-12-30T21:56:07.317Z,16.97
2018-12-30T21:58:34.281Z,13.78
2018-12-30T22:01:00.738Z,14.75
2018-12-30T22:03:27.203Z,14.73
2018-12-30T22:05:53.670Z,15.38
2018-12-30T22:08:20.491Z,12.95
2018-12-30T22:10:46.944Z,14.80
2018-12-30T22:13:13.423Z,13.48
2018-12-30T22:15:40.127Z,13.10
2018-12-30T22:18:06.685Z,14.95
2018-12-30T22:20:33.239Z,13.05
2018-12-30T22:22:59.703Z,12.75
2018-12-30T22:25:26.089Z,11.53
2018-12-30T22:27:52.532Z,12.60
2018-12-30T22:30:18.914Z,11.80
2018-12-30T22:32:45.462Z,13.48
2018-12-30T22:35:12.079Z,12.33
2018-12-30T22:37:38.532Z,14.47
2018-12-30T22:40:06.957Z,13.85
2018-12-30T22:42:33.450Z,13.65
2018-12-30T22:44:59.898Z,15.78
2018-12-30T22:47:26.722Z,15.43
2018-12-30T22:49:53.088Z,15.32
2018-12-30T22:52:19.569Z,12.60
2018-12-30T22:54:46.027Z,14.40
2018-12-30T22:57:12.541Z,14.25
2018-12-30T22:59:39.107Z,14.83
2018-12-30T23:02:06.271Z,15.08
2018-12-30T23:04:32.891Z,14.43
2018-12-30T23:06:59.360Z,14.50
2018-12-30T23:09:25.915Z,15.68
2018-12-30T23:11:52.397Z,15.28
2018-12-30T23:14:18.841Z,14.98
2018-12-30T23:16:45.407Z,14.18
2018-12-30T23:19:11.917Z,15.50
2018-12-30T23:21:38.612Z,14.45
2018-12-30T23:24:05.180Z,14.83
2018-12-30T23:26:31.678Z,17.60
2018-12-30T23:28:58.135Z,14.68
2018-12-30T23:31:24.595Z,14.95
2018-12-30T23:33:51.093Z,15.35
2018-12-30T23:36:17.638Z,16.17
2018-12-30T23:38:44.241Z,16.42
2018-12-30T23:41:10.674Z,16.15
2018-12-30T23:43:37.144Z,15.35
2018-12-30T23:46:03.701Z,13.95
2018-12-30T23:48:30.168Z,14.75
2018-12-30T23:50:56.633Z,16.85
2018-12-30T23:53:23.110Z,13.00
2018-12-30T23:55:49.564Z,15.30
2018-12-30T23:58:16.396Z,13.88
